Georgetown, Maine
Current Conditions -  °F | °C
As of 2:53 PM on Thursday 29 Jan 2015 (Local Time) from KIWI Reporting Station
Clear Clear  
Wind Chill: 24°   Ceiling: Unl
Heat Index: 30°   Visibility: 10mi
Dew Point:   Wind: 6mph
Humidity: 36%   Direction: 220°SW
Pressure: 30.21"   Gusts: NA
Location:  43.8°N, 69.75°W
Report Text: KIWI 291953Z AUTO 22005KT 10SM CLR M01/M14 A3021 RMK AO2 SLP231 T10111144
Loading
Personal Weather Stations






























Interactive Weather Map New forecast layout! Learn more

10-Day Weather Forecast

Advertisements
Track Severe Weather on mobile